Disclaimer

Please do not use the information listed here in-flight or in-navigation, as they are not provided to us by the airports but are provided by volunteers, so they might be outdated.

Search


Regions


Airport information page

Radio informations:
Tower (TWR) - 118.7 MHz
A/G VOICE RDO - 5484 MHz

Airport informations:
Latitude: 13° 18' 43.44" S
Longitude: 048° 18' 53.36" E
Elevation: 36 feet - 11 meters
Operating hours: Remarks
Operating agency: Civil government, landing fees and diplomatic clearance may be required
Timezone: UTC+3
Fuel: Jet A, without icing inhibitor.

100/130 octane gasoline, leaded, MIL-L-5572F (GREEN)

Runway information:
05/23 - 7185 x 148 feet< - >2190 x 45 meters

Recent METARs:
FMNN 130400Z 22002KT 9999 SCT020 27/26 Q1012
FMNN 130400Z 22002KT 9999 SCT020 27/26 Q1012
FMNN 130400Z 22002KT 9999 SCT020 27/26 Q1012

Airport on the map: